This is the latest recevied weather packets stored in our database for station/object CA4LJZ-10. If no packets are shown the sender has not sent any weather packets the latest 10 day(s).
| Time | Temp. | Humidity | Pressure | Rain* | Wind** | Luminosity | Snow |
|---|---|---|---|---|---|---|---|
| 1778054473 | 15° C | 59% | 951.6 hPa | - | - | - | - |
| 1778053572 | 15° C | 57% | 951.9 hPa | - | - | - | - |
| 1778052670 | 15° C | 59% | 951.7 hPa | - | - | - | - |
| 1778051769 | 15° C | 58% | 951.9 hPa | - | - | - | - |
| 1778050868 | 15° C | 58% | 951.5 hPa | - | - | - | - |
| 1778050101 | 15° C | 59% | 951.6 hPa | - | - | - | - |
| 1778049967 | 15° C | 59% | 951.6 hPa | - | - | - | - |
| 1778049067 | 15° C | 58% | 951.7 hPa | - | - | - | - |
| 1778048166 | 16.67° C | 54% | 952 hPa | - | - | - | - |
| 1778047265 | 16.67° C | 55% | 952 hPa | - | - | - | - |
| 1778046363 | 16.67° C | 54% | 952.2 hPa | - | - | - | - |
| 1778045462 | 16.67° C | 55% | 952.3 hPa | - | - | - | - |
| 1778044561 | 17.22° C | 54% | 952.5 hPa | - | - | - | - |
| 1778043660 | 16.67° C | 55% | 952.8 hPa | - | - | - | - |
| 1778042759 | 16.67° C | 55% | 952.7 hPa | - | - | - | - |
| 1778041859 | 17.22° C | 54% | 952.6 hPa | - | - | - | - |
| 1778040958 | 17.22° C | 57% | 952.8 hPa | - | - | - | - |
| 1778040057 | 17.22° C | 56% | 952.7 hPa | - | - | - | - |
| 1778039156 | 17.22° C | 56% | 952.9 hPa | - | - | - | - |
| 1778038255 | 17.22° C | 54% | 953.1 hPa | - | - | - | - |
| 1778037354 | 17.22° C | 56% | 953 hPa | - | - | - | - |
| 1778036453 | 17.22° C | 57% | 953.3 hPa | - | - | - | - |
| 1778035552 | 17.22° C | 55% | 953.3 hPa | - | - | - | - |
| 1778034651 | 17.78° C | 55% | 953.3 hPa | - | - | - | - |
| 1778033772 | 16.11° C | 58% | 953.2 hPa | - | - | - | - |
* Rain since midnight (hover to see other rain measurements)
** Current wind speed in m/s (hover to see current wind gust speed)